Current Weather

Stockton Metro

Stockton, California (KSCK)

Report from: Friday, April 19, 2024 1:55 AM PDT
Current time: Friday, April 19, 2024 2:40 AM PDT

Nearby weather – Weather history – Daily summaries
Weather forecast

Temperature13.3°C (55.9°F)
Dew point6.7°C (44.1°F)
Winds 6 kts (3.1 m/s, 6.9 mph) Northwest (310°)
Visibility10 mi. (16.1 km)
Clouds Sky clear
Altimeter29.90 in.Hg (1013 mB)
Relative humidity64 %
Density altitude-31 ft. (-9 m)
Sea-level pressure101.2 kPa (1012 mB, 29.90 in.Hg)
Remarks Fully automated report
Automated weather observing station with precipitation discriminator
Pressure rising, then falling
Flight conditions Visual Meteorological Conditions
Raw dataKSCK 190855Z AUTO 31006KT 10SM CLR 13/07 A2990 RMK AO2 SLP124 T01330067 50000
An error has occurred. This application may no longer respond until reloaded. Reload 🗙